首页
METAR-TAF:

METAR-TAF

机场 :

Northwest Arkansas Regional Airport

费耶特维尔, 阿肯色州, 美国

纬度: 36-16-55N, 经度: 094-18-25W, 海拔: 392米

当前天气观测

该预报发布于43分钟前的06:53 UTC
静风
温度 7°C
湿度 93%
气压 1018 hPa
能見度: 4.8公里
阴天层高于300英尺
轻雾

METAR: KXNA 050653Z AUTO 00000KT 3SM BR OVC003 07/06 A3007 RMK AO2 SLP186 T00720061

时间: 02:36 (07:36 UTC)

预报

该预报发布于2小时和3分钟前的05:33 UTC
预报有效从05日的 06点(UTC)到 06日的 06点(UTC)
风速3节,风向
能見度: 3.2公里
阴天层高于300英尺
轻雾
从 05日的 1600点(UTC)
风速6节,风向南转西南
能見度: 10公里
阴天层高于1200英尺

TAF: KXNA 050533Z 0506/0606 08003KT 2SM BR OVC003 FM051600 20006KT P6SM OVC012

超过4000个机场的气象观测和天气预报(METAR&TAF报告)。

可查询的气象台以黄色和红色小点在地图上表示。

将鼠标移到小点上方,可查看气象台名称。

然后点击查看天气观测和预报。

如需切换地图:点击带黑十字的绿色按钮放大地图;点击带横线的绿色按钮缩小地图;或者点击绿色箭头查看邻近地区的地图。


METAR-TAF: